Clarita, Oklahoma
Current Conditions -  °F | °C
As of 5:15 PM on Wednesday 26 Nov 2014 (Local Time) from KAQR Reporting Station
Clear Clear  
Wind Chill: 55°   Ceiling: Unl
Heat Index: 55°   Visibility: 10mi
Dew Point: 28°   Wind: 9mph
Humidity: 36%   Direction: 340°NNW
Pressure: 30.23"   Gusts: 18mph
Location:  34.48°N, 96.43°W
Report Text: KAQR 262315Z AUTO 34008G16KT 10SM CLR 13/M02 A3023 RMK AO2
Loading
Personal Weather Stations






























Interactive Weather Map New forecast layout! Learn more

10-Day Weather Forecast

Advertisements
Track Severe Weather on mobile